createdAt,value
2023-01-29T00:04:16.321Z,102871.56
2023-01-29T00:09:18.164Z,102859.09
2023-01-29T00:14:20.249Z,102855.00
2023-01-29T00:19:21.994Z,102849.16
2023-01-29T00:24:23.621Z,102837.47
2023-01-29T00:29:25.269Z,102828.50
2023-01-29T00:34:26.944Z,102812.03
2023-01-29T00:39:47.502Z,102821.75
2023-01-29T00:44:58.616Z,102827.41
2023-01-29T00:50:11.178Z,102831.59
2023-01-29T00:55:12.905Z,102833.34
2023-01-29T01:00:17.911Z,102832.28
2023-01-29T01:05:19.981Z,102829.28
2023-01-29T01:10:28.311Z,102829.09
2023-01-29T01:15:37.060Z,102835.72
2023-01-29T01:20:39.490Z,102828.72
2023-01-29T01:25:41.230Z,102822.47
2023-01-29T01:30:43.113Z,102827.00
2023-01-29T01:35:44.703Z,102827.38
2023-01-29T01:40:46.945Z,102813.91
2023-01-29T01:45:48.683Z,102817.63
2023-01-29T01:50:55.749Z,102812.56
2023-01-29T01:56:02.315Z,102809.84
2023-01-29T02:01:07.325Z,102811.00
2023-01-29T02:06:28.730Z,102804.69
2023-01-29T02:11:30.657Z,102812.75
2023-01-29T02:16:34.682Z,102810.31
2023-01-29T02:21:41.018Z,102810.44
2023-01-29T02:26:55.567Z,102826.59
2023-01-29T02:32:03.891Z,102818.03
2023-01-29T02:37:11.815Z,102813.22
2023-01-29T02:42:24.644Z,102804.44
2023-01-29T02:47:36.760Z,102798.72
2023-01-29T02:52:58.607Z,102787.22
2023-01-29T02:58:35.652Z,102795.97
2023-01-29T03:03:47.891Z,102791.31
2023-01-29T03:08:59.651Z,102770.44
2023-01-29T03:14:08.180Z,102767.53
2023-01-29T03:19:21.335Z,102766.25
2023-01-29T03:25:05.200Z,102768.13
2023-01-29T03:30:31.068Z,102757.91
2023-01-29T03:35:50.106Z,102749.59
2023-01-29T03:41:20.973Z,102753.88
2023-01-29T03:46:31.973Z,102757.00
2023-01-29T03:51:46.826Z,102760.13
2023-01-29T03:57:01.133Z,102747.25
2023-01-29T04:02:09.999Z,102756.22
2023-01-29T04:07:18.610Z,102744.25
2023-01-29T04:12:28.642Z,102729.31
2023-01-29T04:17:40.597Z,102728.38
2023-01-29T04:22:56.101Z,102720.28
2023-01-29T04:28:08.729Z,102719.00
2023-01-29T04:33:22.955Z,102719.00
2023-01-29T04:38:43.381Z,102707.31
2023-01-29T04:44:16.679Z,102700.69
2023-01-29T04:49:34.458Z,102690.75
2023-01-29T04:54:52.561Z,102684.72
2023-01-29T04:59:58.079Z,102692.59
2023-01-29T05:05:00.547Z,102695.91
2023-01-29T05:10:08.209Z,102696.50
2023-01-29T05:15:14.526Z,102689.78
2023-01-29T05:20:16.587Z,102678.88
2023-01-29T05:25:28.320Z,102661.16
2023-01-29T05:30:30.707Z,102669.03
2023-01-29T05:35:32.391Z,102658.88
2023-01-29T05:40:34.111Z,102666.69
2023-01-29T05:45:35.704Z,102669.72
2023-01-29T05:50:37.405Z,102656.06
2023-01-29T05:55:39.073Z,102658.63
2023-01-29T06:00:41.677Z,102650.03
2023-01-29T06:05:43.299Z,102643.91
2023-01-29T06:10:44.986Z,102633.00
2023-01-29T06:15:46.762Z,102638.13
2023-01-29T06:20:48.372Z,102619.34
2023-01-29T06:25:49.936Z,102620.44
2023-01-29T06:30:51.503Z,102615.94
2023-01-29T06:36:00.679Z,102617.13
2023-01-29T06:41:09.960Z,102615.53
2023-01-29T06:46:11.779Z,102622.28
2023-01-29T06:51:13.428Z,102606.16
2023-01-29T06:56:15.143Z,102602.72
2023-01-29T07:01:34.296Z,102612.56
2023-01-29T07:06:37.022Z,102618.13
2023-01-29T07:11:38.828Z,102622.25
2023-01-29T07:16:40.534Z,102613.38
2023-01-29T07:21:42.162Z,102619.22
2023-01-29T07:26:43.753Z,102612.22
2023-01-29T07:31:45.451Z,102600.63
2023-01-29T07:36:47.135Z,102604.63
2023-01-29T07:41:49.020Z,102599.78
2023-01-29T07:46:51.236Z,102584.94
2023-01-29T07:51:52.871Z,102588.03
2023-01-29T07:56:55.978Z,102574.09
2023-01-29T08:01:57.829Z,102567.75
2023-01-29T08:06:59.542Z,102562.22
2023-01-29T08:12:01.263Z,102567.41
2023-01-29T08:17:02.907Z,102568.38
2023-01-29T08:22:05.733Z,102561.72
2023-01-29T08:27:07.497Z,102572.75
2023-01-29T08:32:12.123Z,102556.41
2023-01-29T08:37:14.084Z,102554.22
2023-01-29T08:42:15.773Z,102551.34
2023-01-29T08:47:17.525Z,102544.59
2023-01-29T08:52:19.134Z,102547.78
2023-01-29T08:57:21.419Z,102538.41
2023-01-29T09:02:23.084Z,102545.19
2023-01-29T09:07:24.725Z,102540.50
2023-01-29T09:12:26.417Z,102538.13
2023-01-29T09:17:28.001Z,102538.88
2023-01-29T09:22:29.653Z,102532.66
2023-01-29T09:27:31.235Z,102539.75
2023-01-29T09:37:55.824Z,102533.22
2023-01-29T09:43:47.891Z,102527.56
2023-01-29T09:49:01.037Z,102523.66
2023-01-29T09:54:15.946Z,102503.09
2023-01-29T09:59:20.511Z,102504.16
2023-01-29T10:04:50.862Z,102507.19
2023-01-29T10:10:24.074Z,102502.00
2023-01-29T10:15:38.984Z,102500.25
2023-01-29T10:21:06.118Z,102487.28
2023-01-29T10:26:12.918Z,102496.34
2023-01-29T10:31:33.195Z,102490.31
2023-01-29T10:36:47.566Z,102494.81
2023-01-29T10:42:33.507Z,102485.41
2023-01-29T10:48:04.266Z,102479.84
2023-01-29T10:53:28.028Z,102476.97
2023-01-29T10:58:47.103Z,102475.56
2023-01-29T11:04:01.981Z,102450.56
2023-01-29T11:09:10.693Z,102444.75
2023-01-29T11:14:34.877Z,102444.97
2023-01-29T11:19:43.574Z,102439.50
2023-01-29T11:24:45.685Z,102431.22
2023-01-29T11:29:51.391Z,102428.91
2023-01-29T11:35:04.351Z,102421.16
2023-01-29T11:40:24.232Z,102401.59
2023-01-29T11:45:28.107Z,102398.66
2023-01-29T11:50:33.224Z,102400.16
2023-01-29T11:55:49.853Z,102384.13
2023-01-29T12:00:55.362Z,102377.91
2023-01-29T12:06:14.479Z,102374.72
2023-01-29T12:11:27.351Z,102363.59
2023-01-29T12:17:01.366Z,102349.69
2023-01-29T12:22:18.099Z,102339.75
2023-01-29T12:27:27.130Z,102317.81
2023-01-29T12:32:56.970Z,102319.47
2023-01-29T12:38:18.497Z,102296.25
2023-01-29T12:43:28.740Z,102280.63
2023-01-29T12:48:36.891Z,102264.94
2023-01-29T12:53:40.634Z,102247.16
2023-01-29T12:58:53.873Z,102235.78
2023-01-29T13:04:07.349Z,102228.06
2023-01-29T13:09:14.845Z,102221.06
2023-01-29T13:14:25.313Z,102204.91
2023-01-29T13:19:37.448Z,102189.00
2023-01-29T13:24:41.253Z,102179.38
2023-01-29T13:29:50.413Z,102174.22
2023-01-29T13:34:58.309Z,102178.47
2023-01-29T13:40:02.612Z,102168.91
2023-01-29T13:45:07.296Z,102162.00
2023-01-29T13:50:18.175Z,102161.22
2023-01-29T13:55:21.290Z,102148.22
2023-01-29T14:00:24.330Z,102141.78
2023-01-29T14:05:31.917Z,102125.38
2023-01-29T14:10:35.367Z,102108.91
2023-01-29T14:15:39.651Z,102120.09
2023-01-29T14:20:47.325Z,102106.38
2023-01-29T14:25:49.296Z,102111.91
2023-01-29T14:30:52.549Z,102091.53
2023-01-29T14:35:56.899Z,102087.59
2023-01-29T14:41:21.533Z,102094.38
2023-01-29T14:46:43.585Z,102084.44
2023-01-29T14:51:46.038Z,102075.84
2023-01-29T14:57:00.834Z,102079.97
2023-01-29T15:02:16.896Z,102077.63
2023-01-29T15:07:22.841Z,102072.38
2023-01-29T15:12:47.818Z,102066.50
2023-01-29T15:17:49.343Z,102053.50
2023-01-29T15:22:51.053Z,102063.22
2023-01-29T15:27:54.839Z,102067.78
2023-01-29T15:32:56.785Z,102070.00
2023-01-29T15:38:01.200Z,102072.63
2023-01-29T15:43:02.927Z,102064.06
2023-01-29T15:48:12.640Z,102052.69
2023-01-29T15:53:20.048Z,102048.94
2023-01-29T15:58:28.813Z,102048.09
2023-01-29T16:03:33.308Z,102038.94
2023-01-29T16:08:35.882Z,102036.69
2023-01-29T16:13:42.949Z,102033.03
2023-01-29T16:18:59.619Z,102024.28
2023-01-29T16:24:15.930Z,102018.16
2023-01-29T16:29:21.785Z,102018.81
2023-01-29T16:34:37.443Z,102021.97
2023-01-29T16:39:45.775Z,102018.34
2023-01-29T16:45:00.322Z,102012.13
2023-01-29T16:50:46.297Z,102019.22
2023-01-29T16:56:05.782Z,102013.59
2023-01-29T17:01:10.805Z,102003.94
2023-01-29T17:06:19.219Z,101997.38
2023-01-29T17:11:41.667Z,101990.47
2023-01-29T17:17:08.022Z,101979.44
2023-01-29T17:22:14.749Z,101975.41
2023-01-29T17:27:22.637Z,101964.66
2023-01-29T17:32:25.224Z,101963.19
2023-01-29T17:37:45.845Z,101945.06
2023-01-29T17:42:47.520Z,101941.94
2023-01-29T17:47:49.141Z,101937.50
2023-01-29T17:52:51.071Z,101947.28
2023-01-29T17:57:52.747Z,101924.84
2023-01-29T18:02:54.419Z,101914.13
2023-01-29T18:07:56.168Z,101925.56
2023-01-29T18:12:57.798Z,101904.22
2023-01-29T18:17:59.676Z,101889.72
2023-01-29T18:23:04.179Z,101877.88
2023-01-29T18:28:06.400Z,101856.31
2023-01-29T18:33:08.068Z,101838.91
2023-01-29T18:38:09.703Z,101837.41
2023-01-29T18:43:11.592Z,101846.13
2023-01-29T18:48:14.179Z,101852.31
2023-01-29T18:53:15.769Z,101851.09
2023-01-29T18:58:28.159Z,101841.53
2023-01-29T19:03:36.414Z,101839.78
2023-01-29T19:08:38.281Z,101834.69
2023-01-29T19:13:40.942Z,101831.34
2023-01-29T19:18:43.549Z,101801.41
2023-01-29T19:23:45.207Z,101818.41
2023-01-29T19:28:46.860Z,101832.44
2023-01-29T19:33:48.515Z,101824.75
2023-01-29T19:38:50.405Z,101835.63
2023-01-29T19:43:53.464Z,101819.72
2023-01-29T19:48:56.983Z,101823.94
2023-01-29T19:53:58.702Z,101805.41
2023-01-29T19:59:00.305Z,101777.69
2023-01-29T20:04:02.114Z,101802.00
2023-01-29T20:09:04.309Z,101796.69
2023-01-29T20:14:06.014Z,101798.03
2023-01-29T20:19:14.051Z,101793.56
2023-01-29T20:24:16.741Z,101796.75
2023-01-29T20:29:18.568Z,101766.69
2023-01-29T20:34:20.193Z,101776.97
2023-01-29T20:39:21.937Z,101755.09
2023-01-29T20:44:24.395Z,101764.94
2023-01-29T20:49:26.198Z,101779.78
2023-01-29T20:54:29.950Z,101788.59
2023-01-29T20:59:32.228Z,101774.06
2023-01-29T21:04:33.852Z,101767.19
2023-01-29T21:09:35.414Z,101764.19
2023-01-29T21:14:37.219Z,101759.44
2023-01-29T21:19:38.871Z,101741.28
2023-01-29T21:24:40.644Z,101697.50
2023-01-29T21:29:42.307Z,101691.19
2023-01-29T21:34:43.986Z,101662.25
2023-01-29T21:39:46.119Z,101643.34
2023-01-29T21:44:47.784Z,101637.75
2023-01-29T21:49:49.484Z,101662.66
2023-01-29T21:54:51.399Z,101681.81
2023-01-29T21:59:54.110Z,101670.25
2023-01-29T22:05:16.607Z,101660.19
2023-01-29T22:10:20.846Z,101648.25
2023-01-29T22:15:23.994Z,101655.44
2023-01-29T22:20:30.189Z,101645.97
2023-01-29T22:25:32.374Z,101623.09
2023-01-29T22:30:34.003Z,101613.31
2023-01-29T22:35:35.708Z,101596.31
2023-01-29T22:40:37.340Z,101622.97
2023-01-29T22:45:39.584Z,101603.97
2023-01-29T22:50:41.851Z,101601.81
2023-01-29T22:55:43.441Z,101598.78
2023-01-29T23:00:49.390Z,101611.31
2023-01-29T23:05:51.336Z,101613.06
2023-01-29T23:10:53.262Z,101598.78
2023-01-29T23:15:59.624Z,101568.25
2023-01-29T23:21:01.460Z,101565.94
2023-01-29T23:26:23.793Z,101550.72
2023-01-29T23:31:26.006Z,101557.31
2023-01-29T23:36:27.689Z,101552.75
2023-01-29T23:41:29.317Z,101560.06
2023-01-29T23:46:31.693Z,101565.69
2023-01-29T23:51:33.425Z,101553.31
2023-01-29T23:56:35.131Z,101549.84
